ORD weather

Chicago O'Hare International Airport
Chicago, Illinois, United States

Public forecast

Using degrees Fahrenheit for public forecast. Weather courtesy of forecast.io.

METAR (pilot weather report)

Retrieved 2017/09/22 00:51 UTC (46 minutes ago):

KORD 220051Z 17006KT 10SM FEW060 SCT140 SCT250 29/21 A2999 RMK AO2 SLP151 T02940206

TAF (pilot weather forecast)

Forecast is more than 12 hours old.

Retrieved 2017/09/21 00:30 UTC (1 day ago):

TAF KORD 212328Z 2200/2306 18007KT P6SM SCT250